sensor_id;sensor_type;location;lat;lon;timestamp;P1;durP1;ratioP1;P2;durP2;ratioP2
2658;SDS011;1339;53.304;10.406;2022-07-22T00:02:25;18.60;;;16.97;;
2658;SDS011;1339;53.304;10.406;2022-07-22T00:04:54;18.47;;;16.67;;
2658;SDS011;1339;53.304;10.406;2022-07-22T00:07:21;21.83;;;19.57;;
2658;SDS011;1339;53.304;10.406;2022-07-22T00:09:48;16.90;;;15.20;;
2658;SDS011;1339;53.304;10.406;2022-07-22T00:12:15;17.80;;;16.03;;
2658;SDS011;1339;53.304;10.406;2022-07-22T00:14:42;17.80;;;16.20;;
2658;SDS011;1339;53.304;10.406;2022-07-22T00:17:10;17.03;;;15.50;;
2658;SDS011;1339;53.304;10.406;2022-07-22T00:19:37;17.17;;;15.60;;
2658;SDS011;1339;53.304;10.406;2022-07-22T00:22:05;16.07;;;14.50;;
2658;SDS011;1339;53.304;10.406;2022-07-22T00:24:32;16.00;;;14.50;;
2658;SDS011;1339;53.304;10.406;2022-07-22T00:26:59;16.67;;;15.27;;
2658;SDS011;1339;53.304;10.406;2022-07-22T00:29:27;16.83;;;15.30;;
2658;SDS011;1339;53.304;10.406;2022-07-22T00:31:54;16.60;;;15.00;;
2658;SDS011;1339;53.304;10.406;2022-07-22T00:34:21;17.10;;;15.33;;
2658;SDS011;1339;53.304;10.406;2022-07-22T00:36:48;17.07;;;15.40;;
2658;SDS011;1339;53.304;10.406;2022-07-22T00:39:16;18.63;;;16.93;;
2658;SDS011;1339;53.304;10.406;2022-07-22T00:41:44;19.77;;;17.60;;
2658;SDS011;1339;53.304;10.406;2022-07-22T00:44:11;15.90;;;14.43;;
2658;SDS011;1339;53.304;10.406;2022-07-22T00:46:38;17.00;;;15.40;;
2658;SDS011;1339;53.304;10.406;2022-07-22T00:49:06;15.73;;;14.33;;
2658;SDS011;1339;53.304;10.406;2022-07-22T00:51:33;18.07;;;16.47;;
2658;SDS011;1339;53.304;10.406;2022-07-22T00:54:01;19.77;;;17.97;;
2658;SDS011;1339;53.304;10.406;2022-07-22T00:56:30;21.67;;;18.43;;
2658;SDS011;1339;53.304;10.406;2022-07-22T00:58:59;17.97;;;16.17;;
2658;SDS011;1339;53.304;10.406;2022-07-22T01:01:26;20.93;;;16.20;;
2658;SDS011;1339;53.304;10.406;2022-07-22T01:03:53;19.90;;;18.00;;
2658;SDS011;1339;53.304;10.406;2022-07-22T01:06:21;19.17;;;17.27;;
2658;SDS011;1339;53.304;10.406;2022-07-22T01:08:48;18.57;;;16.90;;
2658;SDS011;1339;53.304;10.406;2022-07-22T01:11:16;21.20;;;19.30;;
2658;SDS011;1339;53.304;10.406;2022-07-22T01:13:45;17.40;;;15.90;;
2658;SDS011;1339;53.304;10.406;2022-07-22T01:16:13;20.97;;;18.77;;
2658;SDS011;1339;53.304;10.406;2022-07-22T01:18:41;22.83;;;20.57;;
2658;SDS011;1339;53.304;10.406;2022-07-22T01:21:10;21.00;;;18.40;;
2658;SDS011;1339;53.304;10.406;2022-07-22T01:23:38;21.50;;;19.43;;
2658;SDS011;1339;53.304;10.406;2022-07-22T01:26:05;22.30;;;20.23;;
2658;SDS011;1339;53.304;10.406;2022-07-22T01:28:32;19.43;;;17.67;;
2658;SDS011;1339;53.304;10.406;2022-07-22T01:30:59;22.37;;;20.20;;
2658;SDS011;1339;53.304;10.406;2022-07-22T01:33:27;20.00;;;18.10;;
2658;SDS011;1339;53.304;10.406;2022-07-22T01:35:54;21.77;;;19.60;;
2658;SDS011;1339;53.304;10.406;2022-07-22T01:38:22;20.83;;;18.80;;
2658;SDS011;1339;53.304;10.406;2022-07-22T01:40:49;20.23;;;18.33;;
2658;SDS011;1339;53.304;10.406;2022-07-22T01:43:16;21.60;;;19.60;;
2658;SDS011;1339;53.304;10.406;2022-07-22T01:45:46;23.57;;;21.03;;
2658;SDS011;1339;53.304;10.406;2022-07-22T01:48:14;25.03;;;22.50;;
2658;SDS011;1339;53.304;10.406;2022-07-22T01:50:41;14.57;;;13.13;;
2658;SDS011;1339;53.304;10.406;2022-07-22T01:53:08;13.10;;;11.77;;
2658;SDS011;1339;53.304;10.406;2022-07-22T01:55:37;12.07;;;10.87;;
2658;SDS011;1339;53.304;10.406;2022-07-22T01:58:04;10.57;;;8.40;;
2658;SDS011;1339;53.304;10.406;2022-07-22T02:00:31;7.67;;;7.07;;
2658;SDS011;1339;53.304;10.406;2022-07-22T02:02:59;9.43;;;6.53;;
2658;SDS011;1339;53.304;10.406;2022-07-22T02:05:26;7.20;;;6.70;;
2658;SDS011;1339;53.304;10.406;2022-07-22T02:07:57;7.47;;;6.70;;
2658;SDS011;1339;53.304;10.406;2022-07-22T02:10:25;8.40;;;7.50;;
2658;SDS011;1339;53.304;10.406;2022-07-22T02:12:53;7.23;;;6.33;;
2658;SDS011;1339;53.304;10.406;2022-07-22T02:15:20;14.30;;;8.70;;
2658;SDS011;1339;53.304;10.406;2022-07-22T02:17:48;9.77;;;8.77;;
2658;SDS011;1339;53.304;10.406;2022-07-22T02:20:15;11.83;;;9.67;;
2658;SDS011;1339;53.304;10.406;2022-07-22T02:22:42;11.53;;;10.30;;
2658;SDS011;1339;53.304;10.406;2022-07-22T02:25:09;12.50;;;11.40;;
2658;SDS011;1339;53.304;10.406;2022-07-22T02:27:36;10.73;;;9.73;;
2658;SDS011;1339;53.304;10.406;2022-07-22T02:30:05;9.07;;;8.27;;
2658;SDS011;1339;53.304;10.406;2022-07-22T02:32:33;6.57;;;6.07;;
2658;SDS011;1339;53.304;10.406;2022-07-22T02:35:00;5.23;;;4.83;;
2658;SDS011;1339;53.304;10.406;2022-07-22T02:37:27;3.70;;;3.40;;
2658;SDS011;1339;53.304;10.406;2022-07-22T02:39:54;3.50;;;2.57;;
2658;SDS011;1339;53.304;10.406;2022-07-22T02:42:21;8.03;;;3.60;;
2658;SDS011;1339;53.304;10.406;2022-07-22T02:44:48;2.93;;;2.70;;
2658;SDS011;1339;53.304;10.406;2022-07-22T02:47:17;2.83;;;2.60;;
2658;SDS011;1339;53.304;10.406;2022-07-22T02:49:44;2.93;;;2.73;;
2658;SDS011;1339;53.304;10.406;2022-07-22T02:52:11;2.80;;;2.60;;
2658;SDS011;1339;53.304;10.406;2022-07-22T02:54:38;3.17;;;2.87;;
2658;SDS011;1339;53.304;10.406;2022-07-22T02:57:05;3.53;;;3.10;;
2658;SDS011;1339;53.304;10.406;2022-07-22T02:59:32;3.90;;;3.60;;
2658;SDS011;1339;53.304;10.406;2022-07-22T03:02:00;3.67;;;3.37;;
2658;SDS011;1339;53.304;10.406;2022-07-22T03:04:28;4.07;;;3.63;;
2658;SDS011;1339;53.304;10.406;2022-07-22T03:06:55;4.20;;;3.80;;
2658;SDS011;1339;53.304;10.406;2022-07-22T03:09:22;5.53;;;4.90;;
2658;SDS011;1339;53.304;10.406;2022-07-22T03:11:49;5.37;;;4.93;;
2658;SDS011;1339;53.304;10.406;2022-07-22T03:14:16;6.00;;;5.50;;
2658;SDS011;1339;53.304;10.406;2022-07-22T03:16:44;5.60;;;5.10;;
2658;SDS011;1339;53.304;10.406;2022-07-22T03:19:11;6.07;;;5.20;;
2658;SDS011;1339;53.304;10.406;2022-07-22T03:21:40;5.30;;;4.90;;
2658;SDS011;1339;53.304;10.406;2022-07-22T03:24:07;5.23;;;4.20;;
2658;SDS011;1339;53.304;10.406;2022-07-22T03:26:34;5.63;;;5.10;;
2658;SDS011;1339;53.304;10.406;2022-07-22T03:29:01;7.73;;;5.00;;
2658;SDS011;1339;53.304;10.406;2022-07-22T03:31:28;6.40;;;5.13;;
2658;SDS011;1339;53.304;10.406;2022-07-22T03:33:55;5.70;;;5.20;;
2658;SDS011;1339;53.304;10.406;2022-07-22T03:36:22;6.67;;;6.07;;
2658;SDS011;1339;53.304;10.406;2022-07-22T03:38:51;8.83;;;5.93;;
2658;SDS011;1339;53.304;10.406;2022-07-22T03:41:18;9.63;;;6.83;;
2658;SDS011;1339;53.304;10.406;2022-07-22T03:43:45;7.20;;;6.37;;
2658;SDS011;1339;53.304;10.406;2022-07-22T03:46:12;10.00;;;5.90;;
2658;SDS011;1339;53.304;10.406;2022-07-22T03:48:39;5.30;;;4.77;;
2658;SDS011;1339;53.304;10.406;2022-07-22T03:51:06;6.03;;;3.97;;
2658;SDS011;1339;53.304;10.406;2022-07-22T03:53:34;8.03;;;4.77;;
2658;SDS011;1339;53.304;10.406;2022-07-22T03:56:02;5.30;;;3.80;;
2658;SDS011;1339;53.304;10.406;2022-07-22T03:58:30;4.10;;;3.67;;
2658;SDS011;1339;53.304;10.406;2022-07-22T04:00:57;3.90;;;3.00;;
2658;SDS011;1339;53.304;10.406;2022-07-22T04:03:24;4.90;;;4.37;;
2658;SDS011;1339;53.304;10.406;2022-07-22T04:05:51;8.37;;;4.20;;
2658;SDS011;1339;53.304;10.406;2022-07-22T04:08:18;3.90;;;3.60;;
2658;SDS011;1339;53.304;10.406;2022-07-22T04:10:45;5.07;;;3.70;;
2658;SDS011;1339;53.304;10.406;2022-07-22T04:13:14;4.90;;;3.77;;
2658;SDS011;1339;53.304;10.406;2022-07-22T04:15:41;3.47;;;3.10;;
2658;SDS011;1339;53.304;10.406;2022-07-22T04:18:08;6.03;;;4.10;;
2658;SDS011;1339;53.304;10.406;2022-07-22T04:20:35;7.03;;;4.47;;
2658;SDS011;1339;53.304;10.406;2022-07-22T04:23:02;9.63;;;4.90;;
2658;SDS011;1339;53.304;10.406;2022-07-22T04:25:29;6.57;;;4.40;;
2658;SDS011;1339;53.304;10.406;2022-07-22T04:27:56;7.23;;;4.40;;
2658;SDS011;1339;53.304;10.406;2022-07-22T04:30:25;4.83;;;4.33;;
2658;SDS011;1339;53.304;10.406;2022-07-22T04:32:52;5.07;;;4.23;;
2658;SDS011;1339;53.304;10.406;2022-07-22T04:35:19;6.60;;;5.13;;
2658;SDS011;1339;53.304;10.406;2022-07-22T04:37:46;6.70;;;4.70;;
2658;SDS011;1339;53.304;10.406;2022-07-22T04:40:13;6.80;;;5.17;;
2658;SDS011;1339;53.304;10.406;2022-07-22T04:42:40;6.53;;;4.97;;
2658;SDS011;1339;53.304;10.406;2022-07-22T04:45:08;7.17;;;5.57;;
2658;SDS011;1339;53.304;10.406;2022-07-22T04:47:37;15.13;;;5.23;;
2658;SDS011;1339;53.304;10.406;2022-07-22T04:50:05;6.43;;;4.93;;
2658;SDS011;1339;53.304;10.406;2022-07-22T04:52:32;6.73;;;4.27;;
2658;SDS011;1339;53.304;10.406;2022-07-22T04:54:59;5.23;;;4.30;;
2658;SDS011;1339;53.304;10.406;2022-07-22T04:57:26;5.27;;;4.77;;
2658;SDS011;1339;53.304;10.406;2022-07-22T04:59:53;5.73;;;3.83;;
2658;SDS011;1339;53.304;10.406;2022-07-22T05:02:20;4.97;;;3.73;;
2658;SDS011;1339;53.304;10.406;2022-07-22T05:04:49;4.83;;;3.93;;
2658;SDS011;1339;53.304;10.406;2022-07-22T05:07:16;5.13;;;4.40;;
2658;SDS011;1339;53.304;10.406;2022-07-22T05:09:43;6.00;;;4.13;;
2658;SDS011;1339;53.304;10.406;2022-07-22T05:12:10;5.87;;;3.50;;
2658;SDS011;1339;53.304;10.406;2022-07-22T05:14:37;4.50;;;3.47;;
2658;SDS011;1339;53.304;10.406;2022-07-22T05:17:08;4.27;;;3.87;;
2658;SDS011;1339;53.304;10.406;2022-07-22T05:19:36;6.73;;;2.93;;
2658;SDS011;1339;53.304;10.406;2022-07-22T05:22:05;4.07;;;3.77;;
2658;SDS011;1339;53.304;10.406;2022-07-22T05:24:32;5.87;;;3.80;;
2658;SDS011;1339;53.304;10.406;2022-07-22T05:26:59;4.17;;;3.70;;
2658;SDS011;1339;53.304;10.406;2022-07-22T05:29:27;4.03;;;3.63;;
2658;SDS011;1339;53.304;10.406;2022-07-22T05:31:54;6.23;;;4.10;;
2658;SDS011;1339;53.304;10.406;2022-07-22T05:34:21;4.40;;;4.00;;
2658;SDS011;1339;53.304;10.406;2022-07-22T05:36:48;7.40;;;4.00;;
2658;SDS011;1339;53.304;10.406;2022-07-22T05:39:16;3.80;;;3.30;;
2658;SDS011;1339;53.304;10.406;2022-07-22T05:41:43;8.00;;;4.77;;
2658;SDS011;1339;53.304;10.406;2022-07-22T05:44:11;6.37;;;3.63;;
2658;SDS011;1339;53.304;10.406;2022-07-22T05:46:38;8.23;;;4.00;;
2658;SDS011;1339;53.304;10.406;2022-07-22T05:49:05;5.23;;;3.97;;
2658;SDS011;1339;53.304;10.406;2022-07-22T05:51:32;6.27;;;4.00;;
2658;SDS011;1339;53.304;10.406;2022-07-22T05:54:00;7.40;;;4.07;;
2658;SDS011;1339;53.304;10.406;2022-07-22T05:56:30;6.80;;;3.70;;
2658;SDS011;1339;53.304;10.406;2022-07-22T05:58:57;4.87;;;4.00;;
2658;SDS011;1339;53.304;10.406;2022-07-22T06:01:25;9.40;;;3.87;;
2658;SDS011;1339;53.304;10.406;2022-07-22T06:03:52;3.73;;;3.30;;
2658;SDS011;1339;53.304;10.406;2022-07-22T06:06:19;7.27;;;3.77;;
2658;SDS011;1339;53.304;10.406;2022-07-22T06:08:46;5.60;;;3.60;;
2658;SDS011;1339;53.304;10.406;2022-07-22T06:11:13;3.70;;;3.10;;
2658;SDS011;1339;53.304;10.406;2022-07-22T06:13:42;7.87;;;3.43;;
2658;SDS011;1339;53.304;10.406;2022-07-22T06:16:09;6.10;;;2.63;;
2658;SDS011;1339;53.304;10.406;2022-07-22T06:18:36;6.67;;;3.70;;
2658;SDS011;1339;53.304;10.406;2022-07-22T06:21:03;3.73;;;3.00;;
2658;SDS011;1339;53.304;10.406;2022-07-22T06:23:32;6.07;;;3.07;;
2658;SDS011;1339;53.304;10.406;2022-07-22T06:25:59;6.10;;;2.63;;
2658;SDS011;1339;53.304;10.406;2022-07-22T06:28:26;6.53;;;2.93;;
2658;SDS011;1339;53.304;10.406;2022-07-22T06:30:55;6.17;;;4.13;;
2658;SDS011;1339;53.304;10.406;2022-07-22T06:33:22;3.93;;;3.20;;
2658;SDS011;1339;53.304;10.406;2022-07-22T06:35:49;6.80;;;3.10;;
2658;SDS011;1339;53.304;10.406;2022-07-22T06:38:17;6.67;;;2.83;;
2658;SDS011;1339;53.304;10.406;2022-07-22T06:40:44;5.27;;;3.10;;
2658;SDS011;1339;53.304;10.406;2022-07-22T06:43:11;4.23;;;3.83;;
2658;SDS011;1339;53.304;10.406;2022-07-22T06:45:38;5.53;;;2.80;;
2658;SDS011;1339;53.304;10.406;2022-07-22T06:48:06;6.03;;;3.50;;
2658;SDS011;1339;53.304;10.406;2022-07-22T06:50:33;4.27;;;3.43;;
2658;SDS011;1339;53.304;10.406;2022-07-22T06:53:01;6.33;;;2.90;;
2658;SDS011;1339;53.304;10.406;2022-07-22T06:55:28;5.27;;;3.30;;
2658;SDS011;1339;53.304;10.406;2022-07-22T06:57:55;10.10;;;2.60;;
2658;SDS011;1339;53.304;10.406;2022-07-22T07:00:22;4.70;;;3.13;;
2658;SDS011;1339;53.304;10.406;2022-07-22T07:02:49;5.27;;;3.17;;
2658;SDS011;1339;53.304;10.406;2022-07-22T07:05:18;7.67;;;4.27;;
2658;SDS011;1339;53.304;10.406;2022-07-22T07:07:45;8.50;;;3.40;;
2658;SDS011;1339;53.304;10.406;2022-07-22T07:10:12;10.13;;;4.90;;
2658;SDS011;1339;53.304;10.406;2022-07-22T07:12:40;8.53;;;3.07;;
2658;SDS011;1339;53.304;10.406;2022-07-22T07:15:08;4.87;;;2.70;;
2658;SDS011;1339;53.304;10.406;2022-07-22T07:17:35;5.63;;;3.10;;
2658;SDS011;1339;53.304;10.406;2022-07-22T07:20:02;8.00;;;3.50;;
2658;SDS011;1339;53.304;10.406;2022-07-22T07:22:32;7.70;;;3.50;;
2658;SDS011;1339;53.304;10.406;2022-07-22T07:25:01;9.00;;;3.53;;
2658;SDS011;1339;53.304;10.406;2022-07-22T07:27:28;7.13;;;3.53;;
2658;SDS011;1339;53.304;10.406;2022-07-22T07:29:55;7.20;;;4.90;;
2658;SDS011;1339;53.304;10.406;2022-07-22T07:32:22;6.87;;;3.30;;
2658;SDS011;1339;53.304;10.406;2022-07-22T07:34:50;6.63;;;3.30;;
2658;SDS011;1339;53.304;10.406;2022-07-22T07:37:17;8.63;;;4.40;;
2658;SDS011;1339;53.304;10.406;2022-07-22T07:39:45;8.63;;;3.80;;
2658;SDS011;1339;53.304;10.406;2022-07-22T07:42:12;11.33;;;3.90;;
2658;SDS011;1339;53.304;10.406;2022-07-22T07:44:39;7.80;;;3.70;;
2658;SDS011;1339;53.304;10.406;2022-07-22T07:47:06;7.73;;;3.57;;
2658;SDS011;1339;53.304;10.406;2022-07-22T07:49:34;9.43;;;2.97;;
2658;SDS011;1339;53.304;10.406;2022-07-22T07:52:01;6.93;;;3.50;;
2658;SDS011;1339;53.304;10.406;2022-07-22T07:54:28;8.30;;;3.80;;
2658;SDS011;1339;53.304;10.406;2022-07-22T07:56:56;4.57;;;3.07;;
2658;SDS011;1339;53.304;10.406;2022-07-22T07:59:23;17.87;;;3.60;;
2658;SDS011;1339;53.304;10.406;2022-07-22T08:01:50;4.23;;;2.90;;
2658;SDS011;1339;53.304;10.406;2022-07-22T08:04:18;8.17;;;3.67;;
2658;SDS011;1339;53.304;10.406;2022-07-22T08:06:45;8.03;;;3.30;;
2658;SDS011;1339;53.304;10.406;2022-07-22T08:09:12;6.77;;;3.33;;
2658;SDS011;1339;53.304;10.406;2022-07-22T08:11:39;3.83;;;3.20;;
2658;SDS011;1339;53.304;10.406;2022-07-22T08:14:07;5.23;;;3.30;;
2658;SDS011;1339;53.304;10.406;2022-07-22T08:16:34;7.53;;;3.27;;
2658;SDS011;1339;53.304;10.406;2022-07-22T08:19:02;4.23;;;2.67;;
2658;SDS011;1339;53.304;10.406;2022-07-22T08:21:29;8.30;;;3.13;;
2658;SDS011;1339;53.304;10.406;2022-07-22T08:23:56;9.57;;;3.10;;
2658;SDS011;1339;53.304;10.406;2022-07-22T08:26:23;6.97;;;2.10;;
2658;SDS011;1339;53.304;10.406;2022-07-22T08:28:50;4.57;;;2.83;;
2658;SDS011;1339;53.304;10.406;2022-07-22T08:31:19;4.83;;;2.80;;
2658;SDS011;1339;53.304;10.406;2022-07-22T08:33:46;6.17;;;2.90;;
2658;SDS011;1339;53.304;10.406;2022-07-22T08:36:13;5.83;;;2.80;;
2658;SDS011;1339;53.304;10.406;2022-07-22T08:38:40;11.73;;;2.90;;
2658;SDS011;1339;53.304;10.406;2022-07-22T08:41:07;8.40;;;3.03;;
2658;SDS011;1339;53.304;10.406;2022-07-22T08:43:35;6.97;;;3.50;;
2658;SDS011;1339;53.304;10.406;2022-07-22T08:46:04;10.00;;;3.40;;
2658;SDS011;1339;53.304;10.406;2022-07-22T08:48:33;4.03;;;2.10;;
2658;SDS011;1339;53.304;10.406;2022-07-22T08:51:02;6.80;;;2.90;;
2658;SDS011;1339;53.304;10.406;2022-07-22T08:53:30;4.50;;;3.20;;
2658;SDS011;1339;53.304;10.406;2022-07-22T08:55:57;8.00;;;3.13;;
2658;SDS011;1339;53.304;10.406;2022-07-22T08:58:24;10.70;;;3.57;;
2658;SDS011;1339;53.304;10.406;2022-07-22T09:01:03;6.20;;;2.70;;
2658;SDS011;1339;53.304;10.406;2022-07-22T09:03:30;5.47;;;3.30;;
2658;SDS011;1339;53.304;10.406;2022-07-22T09:05:58;9.53;;;3.30;;
2658;SDS011;1339;53.304;10.406;2022-07-22T09:08:26;9.73;;;3.40;;
2658;SDS011;1339;53.304;10.406;2022-07-22T09:10:53;7.70;;;2.70;;
2658;SDS011;1339;53.304;10.406;2022-07-22T09:13:20;4.50;;;3.00;;
2658;SDS011;1339;53.304;10.406;2022-07-22T09:15:50;3.97;;;3.00;;
2658;SDS011;1339;53.304;10.406;2022-07-22T09:18:18;6.10;;;3.10;;
2658;SDS011;1339;53.304;10.406;2022-07-22T09:20:45;6.63;;;2.57;;
2658;SDS011;1339;53.304;10.406;2022-07-22T09:23:14;8.93;;;3.50;;
2658;SDS011;1339;53.304;10.406;2022-07-22T09:25:42;4.27;;;2.47;;
2658;SDS011;1339;53.304;10.406;2022-07-22T09:28:11;3.40;;;2.17;;
2658;SDS011;1339;53.304;10.406;2022-07-22T09:30:40;5.63;;;2.80;;
2658;SDS011;1339;53.304;10.406;2022-07-22T09:33:07;7.13;;;2.93;;
2658;SDS011;1339;53.304;10.406;2022-07-22T09:35:35;7.63;;;2.80;;
2658;SDS011;1339;53.304;10.406;2022-07-22T09:38:03;5.73;;;3.00;;
2658;SDS011;1339;53.304;10.406;2022-07-22T09:40:33;3.40;;;2.77;;
2658;SDS011;1339;53.304;10.406;2022-07-22T09:43:01;4.30;;;2.90;;
2658;SDS011;1339;53.304;10.406;2022-07-22T09:45:29;7.63;;;3.67;;
2658;SDS011;1339;53.304;10.406;2022-07-22T09:47:57;3.53;;;2.40;;
2658;SDS011;1339;53.304;10.406;2022-07-22T09:50:25;7.70;;;4.70;;
2658;SDS011;1339;53.304;10.406;2022-07-22T09:52:53;3.90;;;2.70;;
2658;SDS011;1339;53.304;10.406;2022-07-22T09:55:21;7.00;;;2.20;;
2658;SDS011;1339;53.304;10.406;2022-07-22T09:57:50;3.97;;;2.70;;
2658;SDS011;1339;53.304;10.406;2022-07-22T10:00:18;5.10;;;3.07;;
2658;SDS011;1339;53.304;10.406;2022-07-22T10:02:46;6.63;;;2.77;;
2658;SDS011;1339;53.304;10.406;2022-07-22T10:05:14;3.33;;;3.03;;
2658;SDS011;1339;53.304;10.406;2022-07-22T10:07:43;6.27;;;3.10;;
2658;SDS011;1339;53.304;10.406;2022-07-22T10:10:11;4.90;;;2.90;;
2658;SDS011;1339;53.304;10.406;2022-07-22T10:12:38;6.93;;;2.67;;
2658;SDS011;1339;53.304;10.406;2022-07-22T10:15:08;6.17;;;2.40;;
2658;SDS011;1339;53.304;10.406;2022-07-22T10:17:36;6.00;;;2.67;;
2658;SDS011;1339;53.304;10.406;2022-07-22T10:20:04;4.90;;;3.07;;
2658;SDS011;1339;53.304;10.406;2022-07-22T10:22:45;4.83;;;1.70;;
2658;SDS011;1339;53.304;10.406;2022-07-22T10:25:14;5.73;;;1.90;;
2658;SDS011;1339;53.304;10.406;2022-07-22T10:27:43;4.63;;;2.30;;
2658;SDS011;1339;53.304;10.406;2022-07-22T10:30:13;3.13;;;2.53;;
2658;SDS011;1339;53.304;10.406;2022-07-22T10:32:40;8.47;;;3.17;;
2658;SDS011;1339;53.304;10.406;2022-07-22T10:35:21;5.53;;;2.53;;
2658;SDS011;1339;53.304;10.406;2022-07-22T10:37:51;3.63;;;2.17;;
2658;SDS011;1339;53.304;10.406;2022-07-22T10:40:19;4.73;;;2.80;;
2658;SDS011;1339;53.304;10.406;2022-07-22T10:43:02;5.30;;;2.47;;
2658;SDS011;1339;53.304;10.406;2022-07-22T10:45:32;6.37;;;2.70;;
2658;SDS011;1339;53.304;10.406;2022-07-22T10:47:59;7.20;;;2.27;;
2658;SDS011;1339;53.304;10.406;2022-07-22T10:50:38;4.80;;;2.43;;
2658;SDS011;1339;53.304;10.406;2022-07-22T10:53:05;6.70;;;2.57;;
2658;SDS011;1339;53.304;10.406;2022-07-22T10:55:33;5.87;;;2.40;;
2658;SDS011;1339;53.304;10.406;2022-07-22T10:58:00;6.13;;;2.70;;
2658;SDS011;1339;53.304;10.406;2022-07-22T11:00:27;3.87;;;2.37;;
2658;SDS011;1339;53.304;10.406;2022-07-22T11:02:56;4.40;;;2.17;;
2658;SDS011;1339;53.304;10.406;2022-07-22T11:05:26;10.83;;;2.53;;
2658;SDS011;1339;53.304;10.406;2022-07-22T11:07:54;5.53;;;2.93;;
2658;SDS011;1339;53.304;10.406;2022-07-22T11:10:21;4.07;;;2.40;;
2658;SDS011;1339;53.304;10.406;2022-07-22T11:12:49;4.10;;;2.60;;
2658;SDS011;1339;53.304;10.406;2022-07-22T11:15:16;3.30;;;2.00;;
2658;SDS011;1339;53.304;10.406;2022-07-22T11:17:44;3.30;;;2.73;;
2658;SDS011;1339;53.304;10.406;2022-07-22T11:20:12;4.43;;;2.80;;
2658;SDS011;1339;53.304;10.406;2022-07-22T11:22:39;5.37;;;2.60;;
2658;SDS011;1339;53.304;10.406;2022-07-22T11:25:07;4.17;;;2.30;;
2658;SDS011;1339;53.304;10.406;2022-07-22T11:27:34;4.07;;;2.40;;
2658;SDS011;1339;53.304;10.406;2022-07-22T11:30:02;4.57;;;2.13;;
2658;SDS011;1339;53.304;10.406;2022-07-22T11:32:31;4.97;;;2.40;;
2658;SDS011;1339;53.304;10.406;2022-07-22T11:34:59;4.20;;;2.80;;
2658;SDS011;1339;53.304;10.406;2022-07-22T11:37:27;5.03;;;2.90;;
2658;SDS011;1339;53.304;10.406;2022-07-22T11:39:58;2.63;;;2.37;;
2658;SDS011;1339;53.304;10.406;2022-07-22T11:42:25;4.30;;;2.70;;
2658;SDS011;1339;53.304;10.406;2022-07-22T11:44:53;6.57;;;3.37;;
2658;SDS011;1339;53.304;10.406;2022-07-22T11:47:20;3.63;;;2.50;;
2658;SDS011;1339;53.304;10.406;2022-07-22T11:49:47;8.13;;;3.47;;
2658;SDS011;1339;53.304;10.406;2022-07-22T11:52:14;3.73;;;3.00;;
2658;SDS011;1339;53.304;10.406;2022-07-22T11:54:43;4.80;;;2.93;;
2658;SDS011;1339;53.304;10.406;2022-07-22T11:57:11;4.27;;;3.00;;
2658;SDS011;1339;53.304;10.406;2022-07-22T11:59:38;3.43;;;2.60;;
2658;SDS011;1339;53.304;10.406;2022-07-22T12:02:05;3.70;;;2.37;;
2658;SDS011;1339;53.304;10.406;2022-07-22T12:04:34;5.27;;;2.30;;
2658;SDS011;1339;53.304;10.406;2022-07-22T12:07:02;3.13;;;2.17;;
2658;SDS011;1339;53.304;10.406;2022-07-22T12:09:30;6.10;;;2.77;;
2658;SDS011;1339;53.304;10.406;2022-07-22T12:11:58;3.57;;;2.20;;
2658;SDS011;1339;53.304;10.406;2022-07-22T12:14:26;4.30;;;2.90;;
2658;SDS011;1339;53.304;10.406;2022-07-22T12:16:55;2.57;;;1.93;;
2658;SDS011;1339;53.304;10.406;2022-07-22T12:19:23;7.97;;;2.73;;
2658;SDS011;1339;53.304;10.406;2022-07-22T12:21:51;2.10;;;1.90;;
2658;SDS011;1339;53.304;10.406;2022-07-22T12:24:25;3.17;;;2.00;;
2658;SDS011;1339;53.304;10.406;2022-07-22T12:26:52;3.60;;;2.00;;
2658;SDS011;1339;53.304;10.406;2022-07-22T12:29:21;3.83;;;2.13;;
2658;SDS011;1339;53.304;10.406;2022-07-22T12:31:50;3.80;;;2.73;;
2658;SDS011;1339;53.304;10.406;2022-07-22T12:34:28;7.90;;;2.77;;
2658;SDS011;1339;53.304;10.406;2022-07-22T12:36:56;5.00;;;2.77;;
2658;SDS011;1339;53.304;10.406;2022-07-22T12:39:23;6.37;;;2.83;;
2658;SDS011;1339;53.304;10.406;2022-07-22T12:41:52;4.37;;;2.70;;
2658;SDS011;1339;53.304;10.406;2022-07-22T12:44:22;3.07;;;2.10;;
2658;SDS011;1339;53.304;10.406;2022-07-22T12:46:50;2.80;;;2.40;;
2658;SDS011;1339;53.304;10.406;2022-07-22T12:49:18;3.60;;;2.03;;
2658;SDS011;1339;53.304;10.406;2022-07-22T12:52:04;5.23;;;2.73;;
2658;SDS011;1339;53.304;10.406;2022-07-22T12:54:31;3.97;;;2.27;;
2658;SDS011;1339;53.304;10.406;2022-07-22T12:56:59;8.43;;;3.07;;
2658;SDS011;1339;53.304;10.406;2022-07-22T12:59:27;4.07;;;2.20;;
2658;SDS011;1339;53.304;10.406;2022-07-22T13:01:55;3.17;;;1.97;;
2658;SDS011;1339;53.304;10.406;2022-07-22T13:04:22;4.20;;;2.27;;
2658;SDS011;1339;53.304;10.406;2022-07-22T13:06:49;3.87;;;1.97;;
2658;SDS011;1339;53.304;10.406;2022-07-22T13:09:17;3.47;;;2.17;;
2658;SDS011;1339;53.304;10.406;2022-07-22T13:11:45;5.93;;;2.87;;
2658;SDS011;1339;53.304;10.406;2022-07-22T13:14:12;3.40;;;1.57;;
2658;SDS011;1339;53.304;10.406;2022-07-22T13:16:41;2.73;;;2.10;;
2658;SDS011;1339;53.304;10.406;2022-07-22T13:19:08;5.40;;;2.20;;
2658;SDS011;1339;53.304;10.406;2022-07-22T13:21:35;6.43;;;1.97;;
2658;SDS011;1339;53.304;10.406;2022-07-22T13:24:03;3.83;;;2.13;;
2658;SDS011;1339;53.304;10.406;2022-07-22T13:26:30;5.03;;;2.13;;
2658;SDS011;1339;53.304;10.406;2022-07-22T13:28:57;4.50;;;2.13;;
2658;SDS011;1339;53.304;10.406;2022-07-22T13:31:24;3.00;;;2.13;;
2658;SDS011;1339;53.304;10.406;2022-07-22T13:33:53;3.50;;;1.80;;
2658;SDS011;1339;53.304;10.406;2022-07-22T13:36:20;3.17;;;2.33;;
2658;SDS011;1339;53.304;10.406;2022-07-22T13:38:48;5.33;;;2.03;;
2658;SDS011;1339;53.304;10.406;2022-07-22T13:41:16;6.13;;;2.50;;
2658;SDS011;1339;53.304;10.406;2022-07-22T13:43:43;2.77;;;1.50;;
2658;SDS011;1339;53.304;10.406;2022-07-22T13:46:11;1.90;;;1.63;;
2658;SDS011;1339;53.304;10.406;2022-07-22T13:48:38;6.10;;;1.93;;
2658;SDS011;1339;53.304;10.406;2022-07-22T13:51:07;2.60;;;1.90;;
2658;SDS011;1339;53.304;10.406;2022-07-22T13:53:34;2.60;;;1.43;;
2658;SDS011;1339;53.304;10.406;2022-07-22T13:56:01;3.67;;;1.70;;
2658;SDS011;1339;53.304;10.406;2022-07-22T13:58:29;3.60;;;1.90;;
2658;SDS011;1339;53.304;10.406;2022-07-22T14:00:56;2.97;;;1.80;;
2658;SDS011;1339;53.304;10.406;2022-07-22T14:03:23;5.80;;;2.30;;
2658;SDS011;1339;53.304;10.406;2022-07-22T14:05:50;6.00;;;2.13;;
2658;SDS011;1339;53.304;10.406;2022-07-22T14:08:19;3.63;;;2.23;;
2658;SDS011;1339;53.304;10.406;2022-07-22T14:10:46;2.80;;;2.20;;
2658;SDS011;1339;53.304;10.406;2022-07-22T14:13:13;8.97;;;2.47;;
2658;SDS011;1339;53.304;10.406;2022-07-22T14:15:40;2.17;;;1.63;;
2658;SDS011;1339;53.304;10.406;2022-07-22T14:18:07;2.87;;;2.30;;
2658;SDS011;1339;53.304;10.406;2022-07-22T14:20:35;3.83;;;1.80;;
2658;SDS011;1339;53.304;10.406;2022-07-22T14:23:02;3.53;;;1.90;;
2658;SDS011;1339;53.304;10.406;2022-07-22T14:25:31;6.93;;;2.30;;
2658;SDS011;1339;53.304;10.406;2022-07-22T14:27:58;3.97;;;1.90;;
2658;SDS011;1339;53.304;10.406;2022-07-22T14:30:26;3.83;;;2.00;;
2658;SDS011;1339;53.304;10.406;2022-07-22T14:32:54;2.80;;;1.97;;
2658;SDS011;1339;53.304;10.406;2022-07-22T14:35:21;3.50;;;2.00;;
2658;SDS011;1339;53.304;10.406;2022-07-22T14:37:48;4.80;;;2.20;;
2658;SDS011;1339;53.304;10.406;2022-07-22T14:40:16;5.50;;;2.47;;
2658;SDS011;1339;53.304;10.406;2022-07-22T14:42:45;3.27;;;2.70;;
2658;SDS011;1339;53.304;10.406;2022-07-22T14:45:13;2.80;;;2.00;;
2658;SDS011;1339;53.304;10.406;2022-07-22T14:47:40;3.83;;;2.33;;
2658;SDS011;1339;53.304;10.406;2022-07-22T14:50:07;3.80;;;2.00;;
2658;SDS011;1339;53.304;10.406;2022-07-22T14:52:35;4.23;;;2.63;;
2658;SDS011;1339;53.304;10.406;2022-07-22T14:55:02;4.07;;;2.30;;
2658;SDS011;1339;53.304;10.406;2022-07-22T14:57:29;6.13;;;2.90;;
2658;SDS011;1339;53.304;10.406;2022-07-22T14:59:57;3.50;;;2.00;;
2658;SDS011;1339;53.304;10.406;2022-07-22T15:02:25;5.77;;;2.20;;